sensor_id;sensor_type;location;lat;lon;timestamp;P1;durP1;ratioP1;P2;durP2;ratioP2
21091;SDS011;10704;42.678;23.288;2022-07-29T00:11:19;12.23;;;9.07;;
21091;SDS011;10704;42.678;23.288;2022-07-29T00:17:07;14.52;;;9.25;;
21091;SDS011;10704;42.678;23.288;2022-07-29T00:22:49;11.65;;;9.27;;
21091;SDS011;10704;42.678;23.288;2022-07-29T00:25:15;14.02;;;9.80;;
21091;SDS011;10704;42.678;23.288;2022-07-29T00:27:41;11.50;;;8.30;;
21091;SDS011;10704;42.678;23.288;2022-07-29T00:30:07;12.30;;;9.27;;
21091;SDS011;10704;42.678;23.288;2022-07-29T00:32:33;12.43;;;9.48;;
21091;SDS011;10704;42.678;23.288;2022-07-29T00:34:59;11.85;;;9.60;;
21091;SDS011;10704;42.678;23.288;2022-07-29T00:37:43;12.82;;;8.90;;
21091;SDS011;10704;42.678;23.288;2022-07-29T00:43:57;12.40;;;10.10;;
21091;SDS011;10704;42.678;23.288;2022-07-29T00:46:22;14.60;;;9.85;;
21091;SDS011;10704;42.678;23.288;2022-07-29T00:52:39;15.90;;;12.68;;
21091;SDS011;10704;42.678;23.288;2022-07-29T00:55:07;17.98;;;13.10;;
21091;SDS011;10704;42.678;23.288;2022-07-29T01:01:25;19.98;;;14.88;;
21091;SDS011;10704;42.678;23.288;2022-07-29T01:07:15;18.02;;;13.82;;
21091;SDS011;10704;42.678;23.288;2022-07-29T01:16:57;17.42;;;13.50;;
21091;SDS011;10704;42.678;23.288;2022-07-29T01:22:28;18.92;;;14.63;;
21091;SDS011;10704;42.678;23.288;2022-07-29T01:34:31;20.88;;;15.10;;
21091;SDS011;10704;42.678;23.288;2022-07-29T01:39:36;23.75;;;15.75;;
21091;SDS011;10704;42.678;23.288;2022-07-29T01:44:54;21.58;;;14.50;;
21091;SDS011;10704;42.678;23.288;2022-07-29T01:47:25;17.23;;;14.40;;
21091;SDS011;10704;42.678;23.288;2022-07-29T01:49:58;19.98;;;14.18;;
21091;SDS011;10704;42.678;23.288;2022-07-29T01:52:28;21.98;;;15.10;;
21091;SDS011;10704;42.678;23.288;2022-07-29T01:55:01;20.38;;;14.20;;
21091;SDS011;10704;42.678;23.288;2022-07-29T01:57:33;19.05;;;15.25;;
21091;SDS011;10704;42.678;23.288;2022-07-29T02:00:01;17.70;;;14.40;;
21091;SDS011;10704;42.678;23.288;2022-07-29T02:06:24;17.77;;;14.63;;
21091;SDS011;10704;42.678;23.288;2022-07-29T02:12:38;19.90;;;14.18;;
21091;SDS011;10704;42.678;23.288;2022-07-29T02:15:07;21.40;;;14.05;;
21091;SDS011;10704;42.678;23.288;2022-07-29T02:17:37;19.73;;;12.90;;
21091;SDS011;10704;42.678;23.288;2022-07-29T02:20:15;19.60;;;13.02;;
21091;SDS011;10704;42.678;23.288;2022-07-29T02:22:41;21.00;;;12.63;;
21091;SDS011;10704;42.678;23.288;2022-07-29T02:25:10;14.43;;;11.80;;
21091;SDS011;10704;42.678;23.288;2022-07-29T02:27:37;16.63;;;12.07;;
21091;SDS011;10704;42.678;23.288;2022-07-29T02:30:05;18.20;;;13.32;;
21091;SDS011;10704;42.678;23.288;2022-07-29T02:32:35;18.65;;;12.45;;
21091;SDS011;10704;42.678;23.288;2022-07-29T02:35:02;17.00;;;13.27;;
21091;SDS011;10704;42.678;23.288;2022-07-29T02:37:29;20.85;;;13.10;;
21091;SDS011;10704;42.678;23.288;2022-07-29T02:39:57;19.23;;;13.23;;
21091;SDS011;10704;42.678;23.288;2022-07-29T02:42:24;17.42;;;13.38;;
21091;SDS011;10704;42.678;23.288;2022-07-29T02:44:53;24.33;;;13.73;;
21091;SDS011;10704;42.678;23.288;2022-07-29T02:50:00;18.60;;;13.27;;
21091;SDS011;10704;42.678;23.288;2022-07-29T02:52:38;18.08;;;14.57;;
21091;SDS011;10704;42.678;23.288;2022-07-29T02:55:26;20.38;;;15.32;;
21091;SDS011;10704;42.678;23.288;2022-07-29T02:58:05;17.63;;;14.85;;
21091;SDS011;10704;42.678;23.288;2022-07-29T03:00:56;20.35;;;14.00;;
21091;SDS011;10704;42.678;23.288;2022-07-29T03:03:27;20.90;;;15.27;;
21091;SDS011;10704;42.678;23.288;2022-07-29T03:09:46;19.83;;;15.35;;
21091;SDS011;10704;42.678;23.288;2022-07-29T03:12:12;23.65;;;15.10;;
21091;SDS011;10704;42.678;23.288;2022-07-29T03:14:39;17.70;;;14.25;;
21091;SDS011;10704;42.678;23.288;2022-07-29T03:20:54;18.55;;;14.93;;
21091;SDS011;10704;42.678;23.288;2022-07-29T03:23:20;22.08;;;14.90;;
21091;SDS011;10704;42.678;23.288;2022-07-29T03:25:52;20.70;;;15.45;;
21091;SDS011;10704;42.678;23.288;2022-07-29T03:28:19;24.10;;;15.10;;
21091;SDS011;10704;42.678;23.288;2022-07-29T03:30:45;18.00;;;13.38;;
21091;SDS011;10704;42.678;23.288;2022-07-29T03:33:11;22.77;;;14.30;;
21091;SDS011;10704;42.678;23.288;2022-07-29T03:35:37;19.23;;;14.40;;
21091;SDS011;10704;42.678;23.288;2022-07-29T03:38:09;17.83;;;13.30;;
21091;SDS011;10704;42.678;23.288;2022-07-29T03:40:37;17.83;;;13.50;;
21091;SDS011;10704;42.678;23.288;2022-07-29T03:54:31;19.10;;;14.60;;
21091;SDS011;10704;42.678;23.288;2022-07-29T03:56:58;25.88;;;15.32;;
21091;SDS011;10704;42.678;23.288;2022-07-29T04:03:13;20.83;;;14.63;;
21091;SDS011;10704;42.678;23.288;2022-07-29T04:05:39;18.23;;;13.88;;
21091;SDS011;10704;42.678;23.288;2022-07-29T04:08:05;19.70;;;15.20;;
21091;SDS011;10704;42.678;23.288;2022-07-29T04:14:18;24.08;;;16.00;;
21091;SDS011;10704;42.678;23.288;2022-07-29T04:16:44;25.33;;;16.38;;
21091;SDS011;10704;42.678;23.288;2022-07-29T04:19:10;23.10;;;16.10;;
21091;SDS011;10704;42.678;23.288;2022-07-29T04:21:39;23.25;;;16.90;;
21091;SDS011;10704;42.678;23.288;2022-07-29T04:24:06;23.30;;;17.02;;
21091;SDS011;10704;42.678;23.288;2022-07-29T04:26:32;21.20;;;16.42;;
21091;SDS011;10704;42.678;23.288;2022-07-29T04:28:59;21.70;;;16.50;;
21091;SDS011;10704;42.678;23.288;2022-07-29T04:31:25;26.55;;;17.65;;
21091;SDS011;10704;42.678;23.288;2022-07-29T04:33:51;23.50;;;16.33;;
21091;SDS011;10704;42.678;23.288;2022-07-29T04:36:17;21.45;;;16.10;;
21091;SDS011;10704;42.678;23.288;2022-07-29T04:38:43;27.35;;;17.83;;
21091;SDS011;10704;42.678;23.288;2022-07-29T04:41:08;25.67;;;18.08;;
21091;SDS011;10704;42.678;23.288;2022-07-29T04:43:35;25.30;;;17.65;;
21091;SDS011;10704;42.678;23.288;2022-07-29T04:46:02;20.92;;;16.58;;
21091;SDS011;10704;42.678;23.288;2022-07-29T04:48:28;21.83;;;16.52;;
21091;SDS011;10704;42.678;23.288;2022-07-29T04:53:40;23.27;;;17.17;;
21091;SDS011;10704;42.678;23.288;2022-07-29T04:59:54;20.25;;;16.05;;
21091;SDS011;10704;42.678;23.288;2022-07-29T05:02:20;21.98;;;16.27;;
21091;SDS011;10704;42.678;23.288;2022-07-29T05:04:47;24.17;;;16.85;;
21091;SDS011;10704;42.678;23.288;2022-07-29T05:07:13;23.15;;;17.27;;
21091;SDS011;10704;42.678;23.288;2022-07-29T05:09:39;21.63;;;16.98;;
21091;SDS011;10704;42.678;23.288;2022-07-29T05:12:05;22.35;;;16.70;;
21091;SDS011;10704;42.678;23.288;2022-07-29T05:14:32;26.52;;;16.05;;
21091;SDS011;10704;42.678;23.288;2022-07-29T05:16:58;19.40;;;16.30;;
21091;SDS011;10704;42.678;23.288;2022-07-29T05:19:24;20.17;;;14.82;;
21091;SDS011;10704;42.678;23.288;2022-07-29T05:21:50;25.58;;;15.30;;
21091;SDS011;10704;42.678;23.288;2022-07-29T05:24:16;20.85;;;15.50;;
21091;SDS011;10704;42.678;23.288;2022-07-29T05:26:41;22.35;;;16.05;;
21091;SDS011;10704;42.678;23.288;2022-07-29T05:29:08;23.42;;;15.45;;
21091;SDS011;10704;42.678;23.288;2022-07-29T05:31:34;19.80;;;14.82;;
21091;SDS011;10704;42.678;23.288;2022-07-29T05:34:00;18.25;;;14.27;;
21091;SDS011;10704;42.678;23.288;2022-07-29T05:36:26;17.40;;;12.30;;
21091;SDS011;10704;42.678;23.288;2022-07-29T05:38:52;16.58;;;10.70;;
21091;SDS011;10704;42.678;23.288;2022-07-29T05:41:18;15.13;;;10.88;;
21091;SDS011;10704;42.678;23.288;2022-07-29T05:43:44;15.68;;;10.25;;
21091;SDS011;10704;42.678;23.288;2022-07-29T05:46:10;16.13;;;10.88;;
21091;SDS011;10704;42.678;23.288;2022-07-29T05:52:37;11.85;;;9.85;;
21091;SDS011;10704;42.678;23.288;2022-07-29T05:55:04;13.15;;;10.02;;
21091;SDS011;10704;42.678;23.288;2022-07-29T06:01:18;14.60;;;10.10;;
21091;SDS011;10704;42.678;23.288;2022-07-29T06:11:18;14.30;;;9.73;;
21091;SDS011;10704;42.678;23.288;2022-07-29T06:13:44;13.68;;;8.32;;
21091;SDS011;10704;42.678;23.288;2022-07-29T06:16:09;18.35;;;8.02;;
21091;SDS011;10704;42.678;23.288;2022-07-29T06:22:23;18.33;;;8.27;;
21091;SDS011;10704;42.678;23.288;2022-07-29T06:24:49;12.02;;;7.20;;
21091;SDS011;10704;42.678;23.288;2022-07-29T06:27:15;10.05;;;7.25;;
21091;SDS011;10704;42.678;23.288;2022-07-29T06:32:49;10.43;;;6.95;;
21091;SDS011;10704;42.678;23.288;2022-07-29T06:35:14;10.77;;;7.28;;
21091;SDS011;10704;42.678;23.288;2022-07-29T06:37:40;9.93;;;7.35;;
21091;SDS011;10704;42.678;23.288;2022-07-29T06:40:06;10.50;;;7.38;;
21091;SDS011;10704;42.678;23.288;2022-07-29T06:46:38;9.45;;;6.50;;
21091;SDS011;10704;42.678;23.288;2022-07-29T06:49:04;10.15;;;6.90;;
21091;SDS011;10704;42.678;23.288;2022-07-29T06:58:45;7.93;;;5.95;;
21091;SDS011;10704;42.678;23.288;2022-07-29T07:01:11;7.75;;;6.30;;
21091;SDS011;10704;42.678;23.288;2022-07-29T07:03:37;10.20;;;6.38;;
21091;SDS011;10704;42.678;23.288;2022-07-29T07:06:03;8.45;;;5.88;;
21091;SDS011;10704;42.678;23.288;2022-07-29T07:08:29;11.57;;;7.13;;
21091;SDS011;10704;42.678;23.288;2022-07-29T07:14:42;12.30;;;7.03;;
21091;SDS011;10704;42.678;23.288;2022-07-29T07:20:08;12.00;;;6.65;;
21091;SDS011;10704;42.678;23.288;2022-07-29T07:22:34;10.07;;;7.63;;
21091;SDS011;10704;42.678;23.288;2022-07-29T07:25:00;9.95;;;6.95;;
21091;SDS011;10704;42.678;23.288;2022-07-29T07:27:26;16.27;;;7.13;;
21091;SDS011;10704;42.678;23.288;2022-07-29T07:29:52;13.43;;;7.68;;
21091;SDS011;10704;42.678;23.288;2022-07-29T07:32:24;13.63;;;8.02;;
21091;SDS011;10704;42.678;23.288;2022-07-29T07:34:50;10.02;;;6.30;;
21091;SDS011;10704;42.678;23.288;2022-07-29T07:37:16;12.63;;;6.40;;
21091;SDS011;10704;42.678;23.288;2022-07-29T07:39:44;12.10;;;6.65;;
21091;SDS011;10704;42.678;23.288;2022-07-29T07:42:10;10.63;;;6.45;;
21091;SDS011;10704;42.678;23.288;2022-07-29T07:44:38;10.05;;;7.45;;
21091;SDS011;10704;42.678;23.288;2022-07-29T07:47:04;10.07;;;7.20;;
21091;SDS011;10704;42.678;23.288;2022-07-29T07:49:31;11.30;;;6.25;;
21091;SDS011;10704;42.678;23.288;2022-07-29T07:51:56;8.73;;;6.32;;
21091;SDS011;10704;42.678;23.288;2022-07-29T07:54:22;7.50;;;5.57;;
21091;SDS011;10704;42.678;23.288;2022-07-29T07:56:48;9.55;;;6.03;;
21091;SDS011;10704;42.678;23.288;2022-07-29T07:59:15;9.57;;;5.25;;
21091;SDS011;10704;42.678;23.288;2022-07-29T08:01:41;8.95;;;5.95;;
21091;SDS011;10704;42.678;23.288;2022-07-29T08:04:07;7.45;;;5.20;;
21091;SDS011;10704;42.678;23.288;2022-07-29T08:06:33;7.53;;;5.18;;
21091;SDS011;10704;42.678;23.288;2022-07-29T08:09:03;7.75;;;4.97;;
21091;SDS011;10704;42.678;23.288;2022-07-29T08:11:29;7.65;;;5.18;;
21091;SDS011;10704;42.678;23.288;2022-07-29T08:14:05;9.82;;;5.30;;
21091;SDS011;10704;42.678;23.288;2022-07-29T08:16:31;8.25;;;5.43;;
21091;SDS011;10704;42.678;23.288;2022-07-29T08:22:15;6.80;;;5.32;;
21091;SDS011;10704;42.678;23.288;2022-07-29T08:24:41;8.35;;;5.05;;
21091;SDS011;10704;42.678;23.288;2022-07-29T08:27:21;7.18;;;4.70;;
21091;SDS011;10704;42.678;23.288;2022-07-29T08:29:47;8.77;;;5.18;;
21091;SDS011;10704;42.678;23.288;2022-07-29T08:32:14;7.32;;;4.80;;
21091;SDS011;10704;42.678;23.288;2022-07-29T08:38:27;8.10;;;4.63;;
21091;SDS011;10704;42.678;23.288;2022-07-29T08:50:52;6.40;;;5.07;;
21091;SDS011;10704;42.678;23.288;2022-07-29T08:53:19;7.32;;;4.60;;
21091;SDS011;10704;42.678;23.288;2022-07-29T08:55:49;7.53;;;4.85;;
21091;SDS011;10704;42.678;23.288;2022-07-29T08:58:16;8.40;;;5.00;;
21091;SDS011;10704;42.678;23.288;2022-07-29T09:00:43;9.82;;;4.70;;
21091;SDS011;10704;42.678;23.288;2022-07-29T09:03:15;5.80;;;4.35;;
21091;SDS011;10704;42.678;23.288;2022-07-29T09:09:30;7.00;;;4.68;;
21091;SDS011;10704;42.678;23.288;2022-07-29T09:11:56;7.18;;;4.40;;
21091;SDS011;10704;42.678;23.288;2022-07-29T09:18:34;5.93;;;4.63;;
21091;SDS011;10704;42.678;23.288;2022-07-29T09:21:06;6.78;;;4.82;;
21091;SDS011;10704;42.678;23.288;2022-07-29T09:30:55;6.50;;;4.13;;
21091;SDS011;10704;42.678;23.288;2022-07-29T09:33:24;6.10;;;4.20;;
21091;SDS011;10704;42.678;23.288;2022-07-29T09:36:08;5.28;;;4.47;;
21091;SDS011;10704;42.678;23.288;2022-07-29T09:42:35;7.18;;;4.45;;
21091;SDS011;10704;42.678;23.288;2022-07-29T09:45:01;6.93;;;4.30;;
21091;SDS011;10704;42.678;23.288;2022-07-29T09:47:40;6.43;;;4.20;;
21091;SDS011;10704;42.678;23.288;2022-07-29T09:50:07;6.93;;;4.60;;
21091;SDS011;10704;42.678;23.288;2022-07-29T10:02:30;7.20;;;4.43;;
21091;SDS011;10704;42.678;23.288;2022-07-29T10:04:58;5.80;;;4.85;;
21091;SDS011;10704;42.678;23.288;2022-07-29T10:07:25;7.45;;;5.13;;
21091;SDS011;10704;42.678;23.288;2022-07-29T10:09:55;7.10;;;5.10;;
21091;SDS011;10704;42.678;23.288;2022-07-29T10:12:23;8.23;;;5.47;;
21091;SDS011;10704;42.678;23.288;2022-07-29T10:14:50;8.35;;;5.30;;
21091;SDS011;10704;42.678;23.288;2022-07-29T10:17:16;7.60;;;5.50;;
21091;SDS011;10704;42.678;23.288;2022-07-29T10:19:43;7.20;;;5.28;;
21091;SDS011;10704;42.678;23.288;2022-07-29T10:44:45;6.15;;;5.07;;
21091;SDS011;10704;42.678;23.288;2022-07-29T10:51:01;9.18;;;5.10;;
21091;SDS011;10704;42.678;23.288;2022-07-29T11:06:14;10.30;;;6.60;;
21091;SDS011;10704;42.678;23.288;2022-07-29T11:08:41;6.88;;;5.63;;
21091;SDS011;10704;42.678;23.288;2022-07-29T11:13:46;8.88;;;5.55;;
21091;SDS011;10704;42.678;23.288;2022-07-29T11:16:17;7.65;;;6.13;;
21091;SDS011;10704;42.678;23.288;2022-07-29T11:25:25;9.27;;;6.70;;
21091;SDS011;10704;42.678;23.288;2022-07-29T11:27:52;6.63;;;5.93;;
21091;SDS011;10704;42.678;23.288;2022-07-29T11:30:19;6.68;;;5.20;;
21091;SDS011;10704;42.678;23.288;2022-07-29T11:32:45;7.20;;;6.20;;
21091;SDS011;10704;42.678;23.288;2022-07-29T11:35:18;10.00;;;6.07;;
21091;SDS011;10704;42.678;23.288;2022-07-29T11:38:22;5.70;;;5.10;;
21091;SDS011;10704;42.678;23.288;2022-07-29T11:43:49;7.28;;;6.07;;
21091;SDS011;10704;42.678;23.288;2022-07-29T11:49:12;7.13;;;6.28;;
21091;SDS011;10704;42.678;23.288;2022-07-29T11:51:38;10.00;;;6.35;;
21091;SDS011;10704;42.678;23.288;2022-07-29T11:57:57;7.40;;;6.07;;
21091;SDS011;10704;42.678;23.288;2022-07-29T12:06:42;7.25;;;6.50;;
21091;SDS011;10704;42.678;23.288;2022-07-29T12:09:08;10.88;;;6.22;;
21091;SDS011;10704;42.678;23.288;2022-07-29T12:15:22;7.03;;;6.05;;
21091;SDS011;10704;42.678;23.288;2022-07-29T12:17:49;7.05;;;6.35;;
21091;SDS011;10704;42.678;23.288;2022-07-29T12:24:02;6.78;;;5.47;;
21091;SDS011;10704;42.678;23.288;2022-07-29T12:30:15;8.43;;;5.90;;
21091;SDS011;10704;42.678;23.288;2022-07-29T12:32:43;8.73;;;5.97;;
21091;SDS011;10704;42.678;23.288;2022-07-29T12:39:00;9.73;;;6.43;;
21091;SDS011;10704;42.678;23.288;2022-07-29T12:41:29;7.45;;;6.53;;
21091;SDS011;10704;42.678;23.288;2022-07-29T12:47:53;8.20;;;6.63;;
21091;SDS011;10704;42.678;23.288;2022-07-29T12:50:19;7.57;;;6.40;;
21091;SDS011;10704;42.678;23.288;2022-07-29T12:52:45;7.15;;;5.85;;
21091;SDS011;10704;42.678;23.288;2022-07-29T13:07:04;9.85;;;5.88;;
21091;SDS011;10704;42.678;23.288;2022-07-29T13:09:44;8.23;;;6.35;;
21091;SDS011;10704;42.678;23.288;2022-07-29T13:14:50;6.85;;;6.13;;
21091;SDS011;10704;42.678;23.288;2022-07-29T13:17:17;8.38;;;6.32;;
21091;SDS011;10704;42.678;23.288;2022-07-29T13:22:55;6.93;;;6.22;;
21091;SDS011;10704;42.678;23.288;2022-07-29T13:29:09;7.82;;;5.93;;
21091;SDS011;10704;42.678;23.288;2022-07-29T13:35:22;8.43;;;6.47;;
21091;SDS011;10704;42.678;23.288;2022-07-29T13:41:35;7.80;;;6.07;;
21091;SDS011;10704;42.678;23.288;2022-07-29T13:51:04;7.53;;;6.07;;
21091;SDS011;10704;42.678;23.288;2022-07-29T13:53:30;9.40;;;6.07;;
21091;SDS011;10704;42.678;23.288;2022-07-29T13:55:56;8.43;;;5.88;;
21091;SDS011;10704;42.678;23.288;2022-07-29T14:05:57;7.03;;;6.07;;
21091;SDS011;10704;42.678;23.288;2022-07-29T14:08:25;6.90;;;6.10;;
21091;SDS011;10704;42.678;23.288;2022-07-29T14:10:51;7.35;;;6.00;;
21091;SDS011;10704;42.678;23.288;2022-07-29T14:13:17;11.05;;;6.20;;
21091;SDS011;10704;42.678;23.288;2022-07-29T14:15:44;6.40;;;5.70;;
21091;SDS011;10704;42.678;23.288;2022-07-29T14:18:10;8.10;;;5.95;;
21091;SDS011;10704;42.678;23.288;2022-07-29T14:20:36;8.18;;;6.35;;
21091;SDS011;10704;42.678;23.288;2022-07-29T14:23:02;8.70;;;6.40;;
21091;SDS011;10704;42.678;23.288;2022-07-29T14:25:28;6.70;;;6.00;;
21091;SDS011;10704;42.678;23.288;2022-07-29T14:30:49;7.00;;;5.88;;
21091;SDS011;10704;42.678;23.288;2022-07-29T14:37:03;7.70;;;6.43;;
21091;SDS011;10704;42.678;23.288;2022-07-29T14:39:30;7.82;;;5.85;;
21091;SDS011;10704;42.678;23.288;2022-07-29T14:41:56;7.47;;;6.05;;
21091;SDS011;10704;42.678;23.288;2022-07-29T14:44:22;7.85;;;6.10;;
21091;SDS011;10704;42.678;23.288;2022-07-29T14:46:49;8.23;;;6.28;;
21091;SDS011;10704;42.678;23.288;2022-07-29T14:49:15;7.70;;;6.57;;
21091;SDS011;10704;42.678;23.288;2022-07-29T14:51:42;8.75;;;6.60;;
21091;SDS011;10704;42.678;23.288;2022-07-29T14:56:57;10.23;;;6.20;;
21091;SDS011;10704;42.678;23.288;2022-07-29T14:59:23;7.35;;;6.18;;
21091;SDS011;10704;42.678;23.288;2022-07-29T15:01:57;9.38;;;6.22;;
21091;SDS011;10704;42.678;23.288;2022-07-29T15:04:23;7.38;;;6.20;;
21091;SDS011;10704;42.678;23.288;2022-07-29T15:06:55;8.52;;;6.40;;
21091;SDS011;10704;42.678;23.288;2022-07-29T15:09:21;8.82;;;6.10;;
21091;SDS011;10704;42.678;23.288;2022-07-29T15:15:34;7.40;;;6.45;;
21091;SDS011;10704;42.678;23.288;2022-07-29T15:18:00;9.68;;;6.70;;
21091;SDS011;10704;42.678;23.288;2022-07-29T15:20:26;7.75;;;6.45;;
21091;SDS011;10704;42.678;23.288;2022-07-29T15:22:53;7.00;;;6.07;;
21091;SDS011;10704;42.678;23.288;2022-07-29T15:25:21;6.80;;;6.07;;
21091;SDS011;10704;42.678;23.288;2022-07-29T15:27:47;10.63;;;6.50;;
21091;SDS011;10704;42.678;23.288;2022-07-29T15:34:01;8.60;;;6.93;;
21091;SDS011;10704;42.678;23.288;2022-07-29T15:36:27;9.27;;;6.82;;
21091;SDS011;10704;42.678;23.288;2022-07-29T15:38:58;9.90;;;7.05;;
21091;SDS011;10704;42.678;23.288;2022-07-29T15:41:25;9.45;;;7.15;;
21091;SDS011;10704;42.678;23.288;2022-07-29T15:43:51;9.80;;;7.05;;
21091;SDS011;10704;42.678;23.288;2022-07-29T15:46:17;7.10;;;6.30;;
21091;SDS011;10704;42.678;23.288;2022-07-29T15:49:04;9.48;;;6.90;;
21091;SDS011;10704;42.678;23.288;2022-07-29T15:55:18;8.02;;;6.13;;
21091;SDS011;10704;42.678;23.288;2022-07-29T15:57:44;7.95;;;6.78;;
21091;SDS011;10704;42.678;23.288;2022-07-29T16:07:52;11.35;;;7.15;;
21091;SDS011;10704;42.678;23.288;2022-07-29T16:10:18;8.77;;;6.65;;
21091;SDS011;10704;42.678;23.288;2022-07-29T16:12:44;9.60;;;7.03;;
21091;SDS011;10704;42.678;23.288;2022-07-29T16:15:10;10.52;;;7.15;;
21091;SDS011;10704;42.678;23.288;2022-07-29T16:17:37;8.68;;;7.30;;
21091;SDS011;10704;42.678;23.288;2022-07-29T16:20:04;8.82;;;7.78;;
21091;SDS011;10704;42.678;23.288;2022-07-29T16:25:31;10.27;;;7.75;;
21091;SDS011;10704;42.678;23.288;2022-07-29T16:31:45;11.70;;;7.03;;
21091;SDS011;10704;42.678;23.288;2022-07-29T16:34:11;13.02;;;7.05;;
21091;SDS011;10704;42.678;23.288;2022-07-29T16:36:37;8.95;;;6.93;;
21091;SDS011;10704;42.678;23.288;2022-07-29T16:42:16;8.90;;;6.35;;
21091;SDS011;10704;42.678;23.288;2022-07-29T16:44:42;10.88;;;6.90;;
21091;SDS011;10704;42.678;23.288;2022-07-29T16:47:08;9.98;;;7.07;;
21091;SDS011;10704;42.678;23.288;2022-07-29T16:52:52;8.75;;;6.35;;
21091;SDS011;10704;42.678;23.288;2022-07-29T16:55:18;8.50;;;6.30;;
21091;SDS011;10704;42.678;23.288;2022-07-29T16:57:45;10.73;;;6.78;;
21091;SDS011;10704;42.678;23.288;2022-07-29T17:00:13;9.52;;;6.25;;
21091;SDS011;10704;42.678;23.288;2022-07-29T17:05:23;10.07;;;6.55;;
21091;SDS011;10704;42.678;23.288;2022-07-29T17:07:50;9.98;;;6.10;;
21091;SDS011;10704;42.678;23.288;2022-07-29T17:10:16;11.07;;;6.97;;
21091;SDS011;10704;42.678;23.288;2022-07-29T17:12:46;8.90;;;7.55;;
21091;SDS011;10704;42.678;23.288;2022-07-29T17:15:12;11.60;;;6.97;;
21091;SDS011;10704;42.678;23.288;2022-07-29T17:17:40;9.07;;;6.28;;
21091;SDS011;10704;42.678;23.288;2022-07-29T17:20:09;12.45;;;6.70;;
21091;SDS011;10704;42.678;23.288;2022-07-29T17:22:35;8.65;;;6.40;;
21091;SDS011;10704;42.678;23.288;2022-07-29T17:28:09;6.88;;;5.55;;
21091;SDS011;10704;42.678;23.288;2022-07-29T17:30:35;8.48;;;6.10;;
21091;SDS011;10704;42.678;23.288;2022-07-29T17:33:01;7.72;;;6.28;;
21091;SDS011;10704;42.678;23.288;2022-07-29T17:39:14;10.32;;;6.40;;
21091;SDS011;10704;42.678;23.288;2022-07-29T17:41:41;7.57;;;5.72;;
21091;SDS011;10704;42.678;23.288;2022-07-29T17:44:09;7.22;;;5.97;;
21091;SDS011;10704;42.678;23.288;2022-07-29T17:46:35;12.38;;;6.35;;
21091;SDS011;10704;42.678;23.288;2022-07-29T17:49:04;10.32;;;5.95;;
21091;SDS011;10704;42.678;23.288;2022-07-29T17:51:30;7.57;;;5.40;;
21091;SDS011;10704;42.678;23.288;2022-07-29T17:53:57;10.00;;;5.57;;
21091;SDS011;10704;42.678;23.288;2022-07-29T17:56:23;7.50;;;5.72;;
21091;SDS011;10704;42.678;23.288;2022-07-29T17:58:50;10.25;;;5.68;;
21091;SDS011;10704;42.678;23.288;2022-07-29T18:05:04;8.13;;;5.28;;
21091;SDS011;10704;42.678;23.288;2022-07-29T18:07:30;9.13;;;6.20;;
21091;SDS011;10704;42.678;23.288;2022-07-29T18:09:56;8.48;;;5.82;;
21091;SDS011;10704;42.678;23.288;2022-07-29T18:12:22;9.20;;;6.32;;
21091;SDS011;10704;42.678;23.288;2022-07-29T18:14:48;9.23;;;6.30;;
21091;SDS011;10704;42.678;23.288;2022-07-29T18:21:01;12.50;;;6.15;;
21091;SDS011;10704;42.678;23.288;2022-07-29T18:23:28;8.90;;;6.40;;
21091;SDS011;10704;42.678;23.288;2022-07-29T18:25:54;7.07;;;5.93;;
21091;SDS011;10704;42.678;23.288;2022-07-29T18:28:20;8.48;;;6.05;;
21091;SDS011;10704;42.678;23.288;2022-07-29T18:30:46;9.20;;;5.40;;
21091;SDS011;10704;42.678;23.288;2022-07-29T18:33:12;9.23;;;6.03;;
21091;SDS011;10704;42.678;23.288;2022-07-29T18:35:43;7.80;;;6.03;;
21091;SDS011;10704;42.678;23.288;2022-07-29T18:38:09;7.05;;;5.95;;
21091;SDS011;10704;42.678;23.288;2022-07-29T18:40:35;8.38;;;5.97;;
21091;SDS011;10704;42.678;23.288;2022-07-29T18:43:04;7.93;;;6.40;;
21091;SDS011;10704;42.678;23.288;2022-07-29T18:45:31;8.18;;;5.60;;
21091;SDS011;10704;42.678;23.288;2022-07-29T18:47:57;9.30;;;6.38;;
21091;SDS011;10704;42.678;23.288;2022-07-29T18:54:10;11.30;;;6.18;;
21091;SDS011;10704;42.678;23.288;2022-07-29T18:56:36;10.27;;;5.90;;
21091;SDS011;10704;42.678;23.288;2022-07-29T18:59:03;8.30;;;6.45;;
21091;SDS011;10704;42.678;23.288;2022-07-29T19:01:29;7.70;;;6.13;;
21091;SDS011;10704;42.678;23.288;2022-07-29T19:03:55;7.78;;;5.78;;
21091;SDS011;10704;42.678;23.288;2022-07-29T19:06:21;7.70;;;5.97;;
21091;SDS011;10704;42.678;23.288;2022-07-29T19:11:48;8.60;;;5.93;;
21091;SDS011;10704;42.678;23.288;2022-07-29T19:14:14;10.30;;;6.00;;
21091;SDS011;10704;42.678;23.288;2022-07-29T19:16:40;7.93;;;5.70;;
21091;SDS011;10704;42.678;23.288;2022-07-29T19:19:06;7.47;;;5.60;;
21091;SDS011;10704;42.678;23.288;2022-07-29T19:21:32;8.70;;;5.68;;
21091;SDS011;10704;42.678;23.288;2022-07-29T19:23:58;8.45;;;5.68;;
21091;SDS011;10704;42.678;23.288;2022-07-29T19:26:24;9.05;;;5.03;;
21091;SDS011;10704;42.678;23.288;2022-07-29T19:28:50;6.95;;;5.95;;
21091;SDS011;10704;42.678;23.288;2022-07-29T19:31:16;7.80;;;6.45;;
21091;SDS011;10704;42.678;23.288;2022-07-29T19:33:42;8.32;;;5.63;;
21091;SDS011;10704;42.678;23.288;2022-07-29T19:36:08;8.40;;;5.65;;
21091;SDS011;10704;42.678;23.288;2022-07-29T19:38:34;8.38;;;6.28;;
21091;SDS011;10704;42.678;23.288;2022-07-29T19:41:02;8.50;;;5.78;;
21091;SDS011;10704;42.678;23.288;2022-07-29T19:43:28;7.72;;;5.95;;
21091;SDS011;10704;42.678;23.288;2022-07-29T19:45:55;7.32;;;5.32;;
21091;SDS011;10704;42.678;23.288;2022-07-29T19:48:21;8.35;;;5.53;;
21091;SDS011;10704;42.678;23.288;2022-07-29T19:50:47;7.90;;;5.95;;
21091;SDS011;10704;42.678;23.288;2022-07-29T19:53:13;9.20;;;5.97;;
21091;SDS011;10704;42.678;23.288;2022-07-29T19:55:39;6.38;;;5.45;;
21091;SDS011;10704;42.678;23.288;2022-07-29T20:01:53;8.50;;;5.82;;
21091;SDS011;10704;42.678;23.288;2022-07-29T20:11:36;8.40;;;5.15;;
21091;SDS011;10704;42.678;23.288;2022-07-29T20:17:50;7.05;;;5.03;;
21091;SDS011;10704;42.678;23.288;2022-07-29T20:20:17;8.57;;;5.30;;
21091;SDS011;10704;42.678;23.288;2022-07-29T20:29:46;8.65;;;4.90;;
21091;SDS011;10704;42.678;23.288;2022-07-29T20:32:12;8.57;;;4.35;;
21091;SDS011;10704;42.678;23.288;2022-07-29T20:37:48;8.40;;;5.10;;
21091;SDS011;10704;42.678;23.288;2022-07-29T20:40:15;7.38;;;5.32;;
21091;SDS011;10704;42.678;23.288;2022-07-29T20:42:41;8.85;;;5.07;;
21091;SDS011;10704;42.678;23.288;2022-07-29T20:48:54;9.10;;;5.15;;
21091;SDS011;10704;42.678;23.288;2022-07-29T20:51:20;10.77;;;5.80;;
21091;SDS011;10704;42.678;23.288;2022-07-29T20:53:46;9.05;;;5.53;;
21091;SDS011;10704;42.678;23.288;2022-07-29T20:56:13;10.48;;;5.50;;
21091;SDS011;10704;42.678;23.288;2022-07-29T20:58:39;8.35;;;5.22;;
21091;SDS011;10704;42.678;23.288;2022-07-29T21:01:06;6.95;;;5.05;;
21091;SDS011;10704;42.678;23.288;2022-07-29T21:07:20;8.70;;;4.78;;
21091;SDS011;10704;42.678;23.288;2022-07-29T21:09:47;7.35;;;5.45;;
21091;SDS011;10704;42.678;23.288;2022-07-29T21:12:13;10.30;;;5.20;;
21091;SDS011;10704;42.678;23.288;2022-07-29T21:14:39;9.55;;;5.43;;
21091;SDS011;10704;42.678;23.288;2022-07-29T21:20:53;7.57;;;4.80;;
21091;SDS011;10704;42.678;23.288;2022-07-29T21:23:19;6.38;;;4.88;;